sensor_id;sensor_type;location;lat;lon;timestamp;pressure;altitude;pressure_sealevel;temperature;humidity
7990;BME280;4040;42.848;23.034;2023-10-08T00:02:47;95369.84;;;8.80;100.00
7990;BME280;4040;42.848;23.034;2023-10-08T00:08:36;95365.22;;;8.77;100.00
7990;BME280;4040;42.848;23.034;2023-10-08T00:14:26;95363.66;;;8.72;100.00
7990;BME280;4040;42.848;23.034;2023-10-08T00:20:16;95356.72;;;8.68;100.00
7990;BME280;4040;42.848;23.034;2023-10-08T00:26:13;95343.63;;;8.56;100.00
7990;BME280;4040;42.848;23.034;2023-10-08T00:32:07;95344.38;;;8.53;100.00
7990;BME280;4040;42.848;23.034;2023-10-08T00:38:03;95339.78;;;8.57;100.00
7990;BME280;4040;42.848;23.034;2023-10-08T00:40:40;95340.50;;;8.47;100.00
7990;BME280;4040;42.848;23.034;2023-10-08T00:46:33;95332.72;;;8.28;100.00
7990;BME280;4040;42.848;23.034;2023-10-08T00:49:06;95331.94;;;8.24;100.00
7990;BME280;4040;42.848;23.034;2023-10-08T00:55:11;95325.78;;;8.20;100.00
7990;BME280;4040;42.848;23.034;2023-10-08T01:01:08;95317.41;;;8.32;100.00
7990;BME280;4040;42.848;23.034;2023-10-08T01:07:05;95329.81;;;8.54;100.00
7990;BME280;4040;42.848;23.034;2023-10-08T01:13:00;95323.63;;;8.50;100.00
7990;BME280;4040;42.848;23.034;2023-10-08T01:18:54;95313.59;;;8.33;100.00
7990;BME280;4040;42.848;23.034;2023-10-08T01:24:45;95324.13;;;8.08;100.00
7990;BME280;4040;42.848;23.034;2023-10-08T01:30:36;95319.88;;;8.04;100.00
7990;BME280;4040;42.848;23.034;2023-10-08T01:36:30;95317.06;;;8.37;100.00
7990;BME280;4040;42.848;23.034;2023-10-08T01:42:20;95318.16;;;8.29;100.00
7990;BME280;4040;42.848;23.034;2023-10-08T01:48:10;95313.22;;;8.38;100.00
7990;BME280;4040;42.848;23.034;2023-10-08T01:53:59;95306.13;;;8.73;100.00
7990;BME280;4040;42.848;23.034;2023-10-08T01:59:51;95288.50;;;8.76;100.00
7990;BME280;4040;42.848;23.034;2023-10-08T02:05:42;95305.81;;;8.82;100.00
7990;BME280;4040;42.848;23.034;2023-10-08T02:11:31;95298.44;;;8.65;100.00
7990;BME280;4040;42.848;23.034;2023-10-08T02:17:22;95306.00;;;8.49;100.00
7990;BME280;4040;42.848;23.034;2023-10-08T02:19:49;95305.16;;;8.38;100.00
7990;BME280;4040;42.848;23.034;2023-10-08T02:25:38;95304.09;;;7.95;100.00
7990;BME280;4040;42.848;23.034;2023-10-08T02:31:28;95300.63;;;7.95;100.00
7990;BME280;4040;42.848;23.034;2023-10-08T02:37:19;95302.78;;;8.19;100.00
7990;BME280;4040;42.848;23.034;2023-10-08T02:43:07;95310.59;;;8.45;100.00
7990;BME280;4040;42.848;23.034;2023-10-08T02:48:56;95306.19;;;8.91;100.00
7990;BME280;4040;42.848;23.034;2023-10-08T02:54:47;95296.97;;;8.81;100.00
7990;BME280;4040;42.848;23.034;2023-10-08T03:00:40;95292.34;;;8.75;100.00
7990;BME280;4040;42.848;23.034;2023-10-08T03:06:29;95294.56;;;8.55;100.00
7990;BME280;4040;42.848;23.034;2023-10-08T03:12:23;95283.25;;;8.22;100.00
7990;BME280;4040;42.848;23.034;2023-10-08T03:18:13;95231.94;;;7.76;100.00
7990;BME280;4040;42.848;23.034;2023-10-08T03:24:03;95291.31;;;8.29;100.00
7990;BME280;4040;42.848;23.034;2023-10-08T03:30:00;95269.84;;;8.29;100.00
7990;BME280;4040;42.848;23.034;2023-10-08T03:35:50;95276.47;;;8.42;100.00
7990;BME280;4040;42.848;23.034;2023-10-08T03:41:42;95276.09;;;8.47;100.00
7990;BME280;4040;42.848;23.034;2023-10-08T03:47:40;95271.88;;;8.46;100.00
7990;BME280;4040;42.848;23.034;2023-10-08T03:53:33;95263.41;;;8.40;100.00
7990;BME280;4040;42.848;23.034;2023-10-08T03:59:29;95269.13;;;8.39;100.00
7990;BME280;4040;42.848;23.034;2023-10-08T04:05:19;95262.34;;;8.62;100.00
7990;BME280;4040;42.848;23.034;2023-10-08T04:11:14;95265.38;;;8.54;100.00
7990;BME280;4040;42.848;23.034;2023-10-08T04:17:17;95262.94;;;8.28;100.00
7990;BME280;4040;42.848;23.034;2023-10-08T04:19:49;95235.13;;;7.96;100.00
7990;BME280;4040;42.848;23.034;2023-10-08T04:25:39;95255.44;;;7.93;100.00
7990;BME280;4040;42.848;23.034;2023-10-08T04:31:30;95282.25;;;7.97;100.00
7990;BME280;4040;42.848;23.034;2023-10-08T04:37:25;95271.19;;;8.02;100.00
7990;BME280;4040;42.848;23.034;2023-10-08T04:43:22;95265.75;;;7.88;100.00
7990;BME280;4040;42.848;23.034;2023-10-08T04:49:12;95289.41;;;7.79;100.00
7990;BME280;4040;42.848;23.034;2023-10-08T04:55:15;95281.19;;;8.08;100.00
7990;BME280;4040;42.848;23.034;2023-10-08T05:01:09;95276.63;;;8.16;100.00
7990;BME280;4040;42.848;23.034;2023-10-08T05:10:56;95273.78;;;8.45;100.00
7990;BME280;4040;42.848;23.034;2023-10-08T05:17:15;95250.88;;;8.69;100.00
7990;BME280;4040;42.848;23.034;2023-10-08T05:23:11;95276.69;;;10.72;100.00
7990;BME280;4040;42.848;23.034;2023-10-08T05:29:19;95258.56;;;12.43;100.00
7990;BME280;4040;42.848;23.034;2023-10-08T05:35:40;95282.41;;;13.22;100.00
7990;BME280;4040;42.848;23.034;2023-10-08T05:41:41;95288.97;;;14.27;100.00
7990;BME280;4040;42.848;23.034;2023-10-08T05:47:39;95276.75;;;15.74;94.11
7990;BME280;4040;42.848;23.034;2023-10-08T05:53:40;95279.28;;;17.47;82.20
7990;BME280;4040;42.848;23.034;2023-10-08T05:59:32;95278.16;;;18.90;72.60
7990;BME280;4040;42.848;23.034;2023-10-08T06:05:26;95276.25;;;19.95;68.19
7990;BME280;4040;42.848;23.034;2023-10-08T06:11:21;95275.84;;;22.91;59.46
7990;BME280;4040;42.848;23.034;2023-10-08T06:17:24;95272.44;;;25.81;45.28
7990;BME280;4040;42.848;23.034;2023-10-08T06:23:22;95274.34;;;24.84;44.40
7990;BME280;4040;42.848;23.034;2023-10-08T06:29:13;95270.41;;;24.01;44.98
7990;BME280;4040;42.848;23.034;2023-10-08T06:35:17;95275.03;;;24.59;43.98
7990;BME280;4040;42.848;23.034;2023-10-08T06:41:07;95267.78;;;25.92;42.15
7990;BME280;4040;42.848;23.034;2023-10-08T06:47:04;95267.66;;;26.79;40.11
7990;BME280;4040;42.848;23.034;2023-10-08T06:52:56;95267.03;;;28.03;37.52
7990;BME280;4040;42.848;23.034;2023-10-08T06:58:46;95253.56;;;31.23;33.92
7990;BME280;4040;42.848;23.034;2023-10-08T07:04:37;95263.97;;;30.99;32.89
7990;BME280;4040;42.848;23.034;2023-10-08T07:10:26;95257.34;;;32.31;30.93
7990;BME280;4040;42.848;23.034;2023-10-08T07:16:17;95240.34;;;31.48;29.87
7990;BME280;4040;42.848;23.034;2023-10-08T07:22:09;95239.53;;;30.68;30.53
7990;BME280;4040;42.848;23.034;2023-10-08T07:28:19;95234.47;;;32.20;30.08
7990;BME280;4040;42.848;23.034;2023-10-08T07:34:08;95230.72;;;33.13;27.26
7990;BME280;4040;42.848;23.034;2023-10-08T07:40:07;95225.78;;;31.92;28.07
7990;BME280;4040;42.848;23.034;2023-10-08T07:45:59;95224.44;;;32.42;27.64
7990;BME280;4040;42.848;23.034;2023-10-08T07:51:48;95217.06;;;32.58;28.55
7990;BME280;4040;42.848;23.034;2023-10-08T07:57:39;95205.06;;;33.74;25.09
7990;BME280;4040;42.848;23.034;2023-10-08T08:00:08;95204.25;;;33.40;25.20
7990;BME280;4040;42.848;23.034;2023-10-08T08:06:09;95196.34;;;34.67;23.75
7990;BME280;4040;42.848;23.034;2023-10-08T08:11:58;95193.94;;;35.34;23.49
7990;BME280;4040;42.848;23.034;2023-10-08T08:14:27;95188.16;;;34.97;23.13
7990;BME280;4040;42.848;23.034;2023-10-08T08:20:16;95185.97;;;34.75;23.54
7990;BME280;4040;42.848;23.034;2023-10-08T08:26:09;95173.66;;;34.50;24.09
7990;BME280;4040;42.848;23.034;2023-10-08T08:32:14;95173.28;;;35.45;21.85
7990;BME280;4040;42.848;23.034;2023-10-08T08:38:08;95166.22;;;29.88;27.45
7990;BME280;4040;42.848;23.034;2023-10-08T08:40:38;95168.09;;;28.88;28.35
7990;BME280;4040;42.848;23.034;2023-10-08T08:46:32;95164.16;;;28.67;28.93
7990;BME280;4040;42.848;23.034;2023-10-08T08:52:23;95164.22;;;31.27;26.48
7990;BME280;4040;42.848;23.034;2023-10-08T08:58:12;95175.03;;;31.80;25.46
7990;BME280;4040;42.848;23.034;2023-10-08T09:04:02;95147.03;;;34.08;24.32
7990;BME280;4040;42.848;23.034;2023-10-08T09:14:15;95148.63;;;33.96;23.54
7990;BME280;4040;42.848;23.034;2023-10-08T09:20:04;95160.16;;;33.59;23.01
7990;BME280;4040;42.848;23.034;2023-10-08T09:25:54;95163.69;;;29.90;27.32
7990;BME280;4040;42.848;23.034;2023-10-08T09:31:53;95153.34;;;31.42;25.02
7990;BME280;4040;42.848;23.034;2023-10-08T09:37:44;95162.88;;;33.05;24.24
7990;BME280;4040;42.848;23.034;2023-10-08T09:43:33;95156.69;;;33.66;24.10
7990;BME280;4040;42.848;23.034;2023-10-08T09:49:30;95142.47;;;34.18;22.88
7990;BME280;4040;42.848;23.034;2023-10-08T09:55:20;95138.63;;;32.48;24.45
7990;BME280;4040;42.848;23.034;2023-10-08T10:01:10;95107.09;;;32.53;24.39
7990;BME280;4040;42.848;23.034;2023-10-08T10:07:08;95116.63;;;33.84;23.61
7990;BME280;4040;42.848;23.034;2023-10-08T10:17:22;95079.22;;;33.46;22.36
7990;BME280;4040;42.848;23.034;2023-10-08T10:23:38;95109.03;;;32.58;24.50
7990;BME280;4040;42.848;23.034;2023-10-08T10:29:28;95105.28;;;31.73;25.96
7990;BME280;4040;42.848;23.034;2023-10-08T10:35:20;95091.31;;;33.28;24.99
7990;BME280;4040;42.848;23.034;2023-10-08T10:41:10;95081.38;;;35.51;23.43
7990;BME280;4040;42.848;23.034;2023-10-08T10:46:59;95077.28;;;32.48;25.66
7990;BME280;4040;42.848;23.034;2023-10-08T10:53:13;95066.41;;;32.97;25.04
7990;BME280;4040;42.848;23.034;2023-10-08T10:59:05;95052.19;;;31.21;25.60
7990;BME280;4040;42.848;23.034;2023-10-08T11:05:03;95058.91;;;31.44;25.77
7990;BME280;4040;42.848;23.034;2023-10-08T11:10:56;95047.13;;;27.38;30.88
7990;BME280;4040;42.848;23.034;2023-10-08T11:13:24;95055.91;;;27.15;31.45
7990;BME280;4040;42.848;23.034;2023-10-08T11:19:19;95046.00;;;26.64;32.12
7990;BME280;4040;42.848;23.034;2023-10-08T11:25:21;95027.38;;;25.85;32.70
7990;BME280;4040;42.848;23.034;2023-10-08T11:31:17;95045.50;;;25.91;33.72
7990;BME280;4040;42.848;23.034;2023-10-08T11:33:46;95045.00;;;26.56;33.17
7990;BME280;4040;42.848;23.034;2023-10-08T11:39:42;95039.50;;;27.66;32.01
7990;BME280;4040;42.848;23.034;2023-10-08T11:45:32;95028.53;;;29.15;30.44
7990;BME280;4040;42.848;23.034;2023-10-08T11:48:05;95031.44;;;27.79;31.92
7990;BME280;4040;42.848;23.034;2023-10-08T11:50:37;95022.69;;;26.82;33.33
7990;BME280;4040;42.848;23.034;2023-10-08T11:53:06;95022.81;;;26.35;34.08
7990;BME280;4040;42.848;23.034;2023-10-08T11:58:56;95015.75;;;26.23;34.80
7990;BME280;4040;42.848;23.034;2023-10-08T12:04:45;95018.97;;;24.44;36.88
7990;BME280;4040;42.848;23.034;2023-10-08T12:10:34;95020.41;;;24.14;37.64
7990;BME280;4040;42.848;23.034;2023-10-08T12:13:02;95019.09;;;24.10;37.77
7990;BME280;4040;42.848;23.034;2023-10-08T12:18:54;95020.09;;;24.32;38.18
7990;BME280;4040;42.848;23.034;2023-10-08T12:24:46;95007.88;;;24.84;38.08
7990;BME280;4040;42.848;23.034;2023-10-08T12:30:36;95006.94;;;24.93;37.46
7990;BME280;4040;42.848;23.034;2023-10-08T12:33:07;94998.13;;;24.89;37.04
7990;BME280;4040;42.848;23.034;2023-10-08T12:35:40;95000.03;;;24.52;36.76
7990;BME280;4040;42.848;23.034;2023-10-08T12:41:28;94981.34;;;24.36;36.23
7990;BME280;4040;42.848;23.034;2023-10-08T12:47:19;94990.41;;;24.42;36.45
7990;BME280;4040;42.848;23.034;2023-10-08T12:53:09;94979.41;;;24.42;36.39
7990;BME280;4040;42.848;23.034;2023-10-08T12:58:59;94967.66;;;24.41;37.34
7990;BME280;4040;42.848;23.034;2023-10-08T13:04:54;94951.91;;;25.04;36.30
7990;BME280;4040;42.848;23.034;2023-10-08T13:10:46;94957.63;;;25.37;36.57
7990;BME280;4040;42.848;23.034;2023-10-08T13:13:13;94948.78;;;25.22;36.40
7990;BME280;4040;42.848;23.034;2023-10-08T13:19:02;94959.91;;;25.02;37.77
7990;BME280;4040;42.848;23.034;2023-10-08T13:24:51;94943.13;;;24.69;37.70
7990;BME280;4040;42.848;23.034;2023-10-08T13:30:41;94959.19;;;24.76;36.96
7990;BME280;4040;42.848;23.034;2023-10-08T13:36:30;94948.75;;;24.54;36.98
7990;BME280;4040;42.848;23.034;2023-10-08T13:42:19;94952.91;;;24.70;38.01
7990;BME280;4040;42.848;23.034;2023-10-08T13:48:09;94960.81;;;24.57;38.03
7990;BME280;4040;42.848;23.034;2023-10-08T13:54:01;94945.50;;;24.05;38.48
7990;BME280;4040;42.848;23.034;2023-10-08T13:59:53;94952.94;;;23.99;38.47
7990;BME280;4040;42.848;23.034;2023-10-08T14:05:44;94944.13;;;23.75;37.97
7990;BME280;4040;42.848;23.034;2023-10-08T14:11:37;94951.09;;;23.51;38.50
7990;BME280;4040;42.848;23.034;2023-10-08T14:14:04;94965.88;;;23.53;38.80
7990;BME280;4040;42.848;23.034;2023-10-08T14:19:58;94968.59;;;23.33;39.20
7990;BME280;4040;42.848;23.034;2023-10-08T14:25:56;94961.03;;;23.28;39.31
7990;BME280;4040;42.848;23.034;2023-10-08T14:31:50;94966.72;;;23.25;39.43
7990;BME280;4040;42.848;23.034;2023-10-08T14:34:20;94967.34;;;23.14;40.53
7990;BME280;4040;42.848;23.034;2023-10-08T14:40:29;94952.38;;;22.86;40.31
7990;BME280;4040;42.848;23.034;2023-10-08T14:46:36;94978.53;;;22.67;41.23
7990;BME280;4040;42.848;23.034;2023-10-08T14:49:04;94975.53;;;22.65;41.77
7990;BME280;4040;42.848;23.034;2023-10-08T14:54:56;94966.81;;;22.67;41.46
7990;BME280;4040;42.848;23.034;2023-10-08T15:00:45;94956.81;;;22.49;42.21
7990;BME280;4040;42.848;23.034;2023-10-08T15:03:14;94972.50;;;22.63;41.83
7990;BME280;4040;42.848;23.034;2023-10-08T15:09:03;94978.84;;;22.55;42.54
7990;BME280;4040;42.848;23.034;2023-10-08T15:19:05;94971.31;;;22.26;43.25
7990;BME280;4040;42.848;23.034;2023-10-08T15:24:59;94968.09;;;22.13;43.50
7990;BME280;4040;42.848;23.034;2023-10-08T15:30:48;94992.97;;;22.10;44.21
7990;BME280;4040;42.848;23.034;2023-10-08T15:36:39;94994.47;;;21.96;44.65
7990;BME280;4040;42.848;23.034;2023-10-08T15:42:28;95011.75;;;21.88;45.86
7990;BME280;4040;42.848;23.034;2023-10-08T15:44:56;95023.25;;;21.77;46.10
7990;BME280;4040;42.848;23.034;2023-10-08T15:50:44;95008.19;;;21.49;47.32
7990;BME280;4040;42.848;23.034;2023-10-08T15:53:14;95029.16;;;21.52;47.48
7990;BME280;4040;42.848;23.034;2023-10-08T15:55:41;95037.09;;;21.50;47.91
7990;BME280;4040;42.848;23.034;2023-10-08T15:58:08;95039.13;;;21.41;48.32
7990;BME280;4040;42.848;23.034;2023-10-08T16:00:36;95032.91;;;21.40;48.51
7990;BME280;4040;42.848;23.034;2023-10-08T16:03:03;95009.50;;;21.07;49.25
7990;BME280;4040;42.848;23.034;2023-10-08T16:08:55;95044.28;;;21.15;50.64
7990;BME280;4040;42.848;23.034;2023-10-08T16:14:43;95052.88;;;20.90;52.44
7990;BME280;4040;42.848;23.034;2023-10-08T16:20:33;95048.34;;;20.78;53.27
7990;BME280;4040;42.848;23.034;2023-10-08T16:23:01;95040.75;;;20.73;53.57
7990;BME280;4040;42.848;23.034;2023-10-08T16:28:51;95055.41;;;20.35;56.19
7990;BME280;4040;42.848;23.034;2023-10-08T16:34:41;95086.72;;;20.52;58.26
7990;BME280;4040;42.848;23.034;2023-10-08T16:40:30;95092.03;;;20.10;61.11
7990;BME280;4040;42.848;23.034;2023-10-08T16:46:22;95101.91;;;19.99;64.28
7990;BME280;4040;42.848;23.034;2023-10-08T16:52:11;95088.50;;;19.83;67.77
7990;BME280;4040;42.848;23.034;2023-10-08T16:58:00;95105.19;;;19.76;69.94
7990;BME280;4040;42.848;23.034;2023-10-08T17:03:50;95109.16;;;19.35;75.42
7990;BME280;4040;42.848;23.034;2023-10-08T17:09:39;95081.88;;;19.05;79.17
7990;BME280;4040;42.848;23.034;2023-10-08T17:15:29;95057.81;;;18.91;80.48
7990;BME280;4040;42.848;23.034;2023-10-08T17:21:19;95113.34;;;19.18;84.39
7990;BME280;4040;42.848;23.034;2023-10-08T17:27:09;95116.56;;;19.26;85.22
7990;BME280;4040;42.848;23.034;2023-10-08T17:33:00;95116.00;;;19.40;83.61
7990;BME280;4040;42.848;23.034;2023-10-08T17:38:50;95116.34;;;19.51;83.50
7990;BME280;4040;42.848;23.034;2023-10-08T17:44:39;95121.84;;;19.60;83.54
7990;BME280;4040;42.848;23.034;2023-10-08T17:50:28;95117.47;;;19.62;82.22
7990;BME280;4040;42.848;23.034;2023-10-08T17:56:19;95125.34;;;19.69;82.22
7990;BME280;4040;42.848;23.034;2023-10-08T18:02:07;95139.47;;;19.59;82.89
7990;BME280;4040;42.848;23.034;2023-10-08T18:07:56;95137.00;;;19.52;83.13
7990;BME280;4040;42.848;23.034;2023-10-08T18:13:46;95135.91;;;19.40;85.14
7990;BME280;4040;42.848;23.034;2023-10-08T18:19:35;95139.66;;;19.34;84.67
7990;BME280;4040;42.848;23.034;2023-10-08T18:25:26;95166.97;;;19.34;85.85
7990;BME280;4040;42.848;23.034;2023-10-08T18:31:18;95157.59;;;19.35;84.43
7990;BME280;4040;42.848;23.034;2023-10-08T18:37:07;95171.47;;;19.58;83.96
7990;BME280;4040;42.848;23.034;2023-10-08T18:42:56;95175.84;;;19.47;84.86
7990;BME280;4040;42.848;23.034;2023-10-08T18:48:47;95174.03;;;19.53;83.30
7990;BME280;4040;42.848;23.034;2023-10-08T18:54:36;95173.19;;;19.74;81.69
7990;BME280;4040;42.848;23.034;2023-10-08T19:00:27;95177.44;;;19.75;81.36
7990;BME280;4040;42.848;23.034;2023-10-08T19:06:18;95185.03;;;19.71;81.73
7990;BME280;4040;42.848;23.034;2023-10-08T19:12:07;95181.38;;;19.65;82.36
7990;BME280;4040;42.848;23.034;2023-10-08T19:22:21;95202.25;;;19.19;87.13
7990;BME280;4040;42.848;23.034;2023-10-08T19:28:10;95203.81;;;19.08;88.20
7990;BME280;4040;42.848;23.034;2023-10-08T19:34:02;95216.66;;;18.98;90.01
7990;BME280;4040;42.848;23.034;2023-10-08T19:39:52;95218.78;;;18.82;94.11
7990;BME280;4040;42.848;23.034;2023-10-08T19:45:41;95220.19;;;18.86;92.90
7990;BME280;4040;42.848;23.034;2023-10-08T19:51:30;95236.44;;;18.90;92.86
7990;BME280;4040;42.848;23.034;2023-10-08T19:57:21;95236.44;;;18.90;93.50
7990;BME280;4040;42.848;23.034;2023-10-08T20:03:10;95239.78;;;19.28;89.62
7990;BME280;4040;42.848;23.034;2023-10-08T20:09:00;95233.53;;;19.49;86.23
7990;BME280;4040;42.848;23.034;2023-10-08T20:14:50;95235.75;;;19.72;84.56
7990;BME280;4040;42.848;23.034;2023-10-08T20:25:01;95249.00;;;19.52;87.86
7990;BME280;4040;42.848;23.034;2023-10-08T20:30:52;95263.53;;;19.18;89.63
7990;BME280;4040;42.848;23.034;2023-10-08T20:36:40;95277.22;;;19.06;91.45
7990;BME280;4040;42.848;23.034;2023-10-08T20:42:30;95281.41;;;18.98;92.53
7990;BME280;4040;42.848;23.034;2023-10-08T20:48:21;95284.72;;;18.93;93.66
7990;BME280;4040;42.848;23.034;2023-10-08T20:54:11;95293.44;;;18.88;94.82
7990;BME280;4040;42.848;23.034;2023-10-08T21:00:01;95282.13;;;18.77;95.19
7990;BME280;4040;42.848;23.034;2023-10-08T21:05:56;95292.06;;;18.83;96.37
7990;BME280;4040;42.848;23.034;2023-10-08T21:08:25;95287.59;;;18.77;96.89
7990;BME280;4040;42.848;23.034;2023-10-08T21:14:14;95287.13;;;18.57;98.68
7990;BME280;4040;42.848;23.034;2023-10-08T21:20:04;95301.53;;;18.57;100.00
7990;BME280;4040;42.848;23.034;2023-10-08T21:25:58;95301.53;;;18.57;100.00
7990;BME280;4040;42.848;23.034;2023-10-08T21:31:46;95304.47;;;18.63;100.00
7990;BME280;4040;42.848;23.034;2023-10-08T21:37:35;95315.44;;;18.72;100.00
7990;BME280;4040;42.848;23.034;2023-10-08T21:43:27;95323.38;;;18.45;100.00
7990;BME280;4040;42.848;23.034;2023-10-08T21:49:16;95322.38;;;18.39;100.00
7990;BME280;4040;42.848;23.034;2023-10-08T21:55:06;95321.63;;;18.38;100.00
7990;BME280;4040;42.848;23.034;2023-10-08T22:08:35;95323.03;;;18.18;100.00
7990;BME280;4040;42.848;23.034;2023-10-08T22:14:25;95321.75;;;18.10;100.00
7990;BME280;4040;42.848;23.034;2023-10-08T22:20:20;95321.63;;;18.01;100.00
7990;BME280;4040;42.848;23.034;2023-10-08T22:26:24;95323.56;;;18.00;100.00
7990;BME280;4040;42.848;23.034;2023-10-08T22:32:13;95316.28;;;17.85;100.00
7990;BME280;4040;42.848;23.034;2023-10-08T22:38:03;95350.13;;;17.72;100.00
7990;BME280;4040;42.848;23.034;2023-10-08T22:43:54;95349.25;;;17.62;100.00
7990;BME280;4040;42.848;23.034;2023-10-08T22:49:43;95357.34;;;17.66;100.00
7990;BME280;4040;42.848;23.034;2023-10-08T22:55:41;95356.47;;;17.69;100.00
7990;BME280;4040;42.848;23.034;2023-10-08T23:01:33;95292.47;;;17.48;100.00
7990;BME280;4040;42.848;23.034;2023-10-08T23:07:25;95369.28;;;17.97;100.00
7990;BME280;4040;42.848;23.034;2023-10-08T23:09:52;95376.66;;;17.96;100.00
7990;BME280;4040;42.848;23.034;2023-10-08T23:15:43;95371.44;;;17.89;100.00
7990;BME280;4040;42.848;23.034;2023-10-08T23:21:34;95383.88;;;17.90;100.00
7990;BME280;4040;42.848;23.034;2023-10-08T23:24:02;95379.50;;;17.80;100.00
7990;BME280;4040;42.848;23.034;2023-10-08T23:29:54;95360.94;;;17.75;100.00
7990;BME280;4040;42.848;23.034;2023-10-08T23:35:43;95375.31;;;17.63;100.00
7990;BME280;4040;42.848;23.034;2023-10-08T23:41:33;95365.00;;;17.42;100.00
7990;BME280;4040;42.848;23.034;2023-10-08T23:47:34;95375.03;;;17.45;100.00
7990;BME280;4040;42.848;23.034;2023-10-08T23:50:11;95386.28;;;17.47;100.00
7990;BME280;4040;42.848;23.034;2023-10-08T23:56:01;95375.72;;;17.33;100.00
